| time (UTC) | temp F | wind direction | speed MPH | gust MPH | rain 1hr in | rain 24hr in | rain mn in | humidity % | barometer mb |
| 20260505210302 | 73 | 248 | 14.0 | 21.0 | 0.00 | 0.53 | 0.21 | 40 | 1011.3 |
| 20260505200803 | 70 | 260 | 9.0 | 16.0 | 0.00 | 0.53 | 0.21 | 51 | 1011.9 |
| 20260505200303 | 70 | 235 | 5.0 | 15.0 | 0.00 | 0.53 | 0.21 | 52 | 1011.9 |
| 20260505190803 | 71 | 330 | 5.0 | 12.0 | 0.00 | 0.53 | 0.21 | 53 | 1012.3 |
| 20260505190303 | 71 | 288 | 6.0 | 15.0 | 0.00 | 0.53 | 0.21 | 55 | 1012.4 |
| 20260505180803 | 67 | 271 | 3.0 | 6.0 | 0.00 | 0.53 | 0.21 | 59 | 1013.0 |
| 20260505180303 | 67 | 235 | 3.0 | 9.0 | 0.00 | 0.53 | 0.21 | 61 | 1013.0 |
| 20260505170803 | 64 | 205 | 1.0 | 5.0 | 0.00 | 0.53 | 0.21 | 71 | 1013.1 |
| 20260505160804 | 61 | 199 | 2.0 | 5.0 | 0.00 | 0.53 | 0.21 | 91 | 1013.0 |
| 20260505160304 | 61 | 180 | 1.0 | 3.0 | 0.00 | 0.53 | 0.21 | 92 | 1012.9 |
| 20260505150803 | 60 | 313 | 0.0 | 3.0 | 0.00 | 0.53 | 0.21 | 93 | 1012.7 |
| 20260505150303 | 60 | 2 | 1.0 | 3.0 | 0.00 | 0.53 | 0.21 | 93 | 1012.6 |
| 20260505140258 | 59 | 171 | 0.0 | 3.0 | 0.00 | 0.53 | 0.21 | 93 | 1012.1 |
| 20260505120759 | 58 | 89 | 1.0 | 2.0 | 0.01 | 0.52 | 0.20 | 91 | 1011.1 |
| 20260505110800 | 57 | 23 | 2.0 | 3.0 | 0.02 | 0.51 | 0.19 | 87 | 1011.5 |
| 20260505100759 | 57 | 15 | 5.0 | 8.0 | 0.05 | 0.49 | 0.17 | 92 | 1012.3 |
| 20260505100300 | 57 | 355 | 2.0 | 6.0 | 0.05 | 0.49 | 0.17 | 92 | 1012.5 |
| 20260505090759 | 58 | 120 | 2.0 | 3.0 | 0.05 | 0.44 | 0.12 | 92 | 1013.3 |
| 20260505090300 | 58 | 139 | 2.0 | 3.0 | 0.06 | 0.44 | 0.12 | 92 | 1013.4 |
| 20260505080800 | 59 | 147 | 0.0 | 0.0 | 0.07 | 0.39 | 0.07 | 92 | 1014.5 |
| 20260505080300 | 59 | 147 | 0.0 | 3.0 | 0.06 | 0.38 | 0.06 | 91 | 1014.6 |
| 20260505070301 | 59 | 116 | 0.0 | 3.0 | 0.04 | 0.32 | 0.00 | 91 | 1014.4 |
| 20260505060800 | 59 | 14 | 1.0 | 2.0 | 0.03 | 0.28 | 0.28 | 91 | 1014.3 |
| 20260505060300 | 59 | 71 | 0.0 | 6.0 | 0.03 | 0.28 | 0.28 | 90 | 1014.2 |
| 20260505050801 | 60 | 348 | 0.0 | 2.0 | 0.02 | 0.25 | 0.25 | 86 | 1014.2 |
| 20260505050301 | 60 | 0 | 0.0 | 12.0 | 0.02 | 0.25 | 0.25 | 86 | 1014.1 |
| 20260505040801 | 59 | 297 | 1.0 | 3.0 | 0.01 | 0.23 | 0.23 | 84 | 1014.1 |
| 20260505040301 | 59 | 346 | 4.0 | 9.0 | 0.02 | 0.23 | 0.23 | 82 | 1013.9 |
| 20260505030800 | 57 | 34 | 4.0 | 7.0 | 0.07 | 0.22 | 0.22 | 79 | 1014.2 |
| 20260505030301 | 57 | 16 | 1.0 | 9.0 | 0.07 | 0.21 | 0.21 | 74 | 1014.4 |
| 20260505020801 | 60 | 330 | 4.0 | 12.0 | 0.05 | 0.15 | 0.15 | 69 | 1014.0 |
| 20260505020301 | 60 | 327 | 8.0 | 18.0 | 0.05 | 0.14 | 0.14 | 67 | 1013.8 |
| 20260505010801 | 61 | 10 | 5.0 | 8.0 | 0.05 | 0.10 | 0.10 | 72 | 1012.4 |
| 20260505010302 | 62 | 48 | 2.0 | 17.0 | 0.05 | 0.09 | 0.09 | 76 | 1012.4 |
| 20260505000302 | 64 | 19 | 8.0 | 24.0 | 0.04 | 0.04 | 0.04 | 61 | 1011.4 |
| 20260504230302 | 76 | 322 | 13.0 | 26.0 | 0.00 | 0.00 | 0.00 | 24 | 1011.4 |
| 20260504220802 | 81 | 343 | 10.0 | 17.0 | 0.00 | 0.00 | 0.00 | 18 | 1011.0 |
| 20260504220303 | 81 | 325 | 12.0 | 21.0 | 0.00 | 0.00 | 0.00 | 18 | 1011.1 |